This is the latest recevied weather packets stored in our database for station/object K1RFS. If no packets are shown the sender has not sent any weather packets the latest 10 day(s).
| Time | Temp. | Humidity | Pressure | Rain* | Wind** | Luminosity | Snow |
|---|---|---|---|---|---|---|---|
| 1788697532 | 16.67° C | 42% | 1003 hPa | 0 mm | - | 0 W/m² | - |
| 1788697229 | 17.22° C | 40% | 1002.9 hPa | 0 mm | - | 0 W/m² | - |
| 1788696925 | 16.67° C | 40% | 1002.5 hPa | 0 mm | - | 0 W/m² | - |
| 1788696621 | 16.11° C | 41% | 1003.1 hPa | 0 mm | - | 0 W/m² | - |
| 1788696315 | 15.56° C | 44% | 1002.9 hPa | 0 mm | - | 0 W/m² | - |
| 1788696014 | 15.56° C | 43% | 1002.9 hPa | 0 mm | - | 0 W/m² | - |
| 1788695714 | 16.11° C | 42% | 1002.9 hPa | 0 mm | - | 0 W/m² | - |
| 1788695414 | 16.11° C | 41% | 1002.8 hPa | 0 mm | - | 0 W/m² | - |
| 1788695108 | 16.67° C | 40% | 1003 hPa | 0 mm | - | 0 W/m² | - |
| 1788694804 | 16.67° C | 40% | 1003.1 hPa | 0 mm | - | 0 W/m² | - |
| 1788694502 | 17.78° C | 38% | 1002.8 hPa | 0 mm | - | 0 W/m² | - |
| 1788694229 | 18.33° C | 36% | 1002.8 hPa | 0 mm | - | 0 W/m² | - |
| 1788693893 | 18.89° C | 34% | 1002.9 hPa | 0 mm | - | 0 W/m² | - |
| 1788693589 | 20° C | 32% | 1002.9 hPa | 0 mm | - | 0 W/m² | - |
| 1788693288 | 20° C | 31% | 1002.9 hPa | 0 mm | - | 0 W/m² | - |
| 1788692984 | 20° C | 32% | 1003 hPa | 0 mm | - | 0 W/m² | - |
| 1788692679 | 19.44° C | 32% | 1002.9 hPa | 0 mm | - | 0 W/m² | - |
| 1788692377 | 19.44° C | 33% | 1002.9 hPa | 0 mm | - | 0 W/m² | - |
| 1788692073 | 20° C | 31% | 1002.9 hPa | 0 mm | - | 0 W/m² | - |
| 1788691770 | 20° C | 31% | 1002.9 hPa | 0 mm | - | 0 W/m² | - |
| 1788691468 | 19.44° C | 31% | 1002.8 hPa | 0 mm | - | 0 W/m² | - |
| 1788691167 | 18.89° C | 32% | 1002.9 hPa | 0 mm | - | 0 W/m² | - |
| 1788690866 | 18.33° C | 34% | 1003 hPa | 0 mm | - | 0 W/m² | - |
| 1788690561 | 18.89° C | 33% | 1002.9 hPa | 0 mm | - | 0 W/m² | - |
| 1788690261 | 19.44° C | 32% | 1002.8 hPa | 0 mm | - | 0 W/m² | - |
* Rain latest hour (hover to see other rain measurements)
** Current wind speed in m/s (hover to see current wind gust speed)